Time;durP1;ratioP1;P1;durP2;ratioP2;P2;SDS_P1;SDS_P2;PMS_P1;PMS_P2;Temp;Humidity;BMP_temperature;BMP_pressure;BME280_temperature;BME280_humidity;BME280_pressure;Samples;Min_cycle;Max_cycle;Signal;HPM_P1;HPM_P2
2022/03/06 00:00:51;;;;;;;8.43;7.67;;;;;18.80;101153.00;;;;2062483;28;20229;-60
2022/03/06 00:01:51;;;;;;;8.00;7.30;;;;;18.70;101145.00;;;;2063668;28;20207;-60
2022/03/06 00:02:52;;;;;;;8.00;7.30;;;;;18.80;101141.00;;;;2063815;28;20207;-60
2022/03/06 00:03:52;;;;;;;7.60;6.90;;;;;18.80;101147.00;;;;2063654;28;20318;-60
2022/03/06 00:04:53;;;;;;;7.90;7.10;;;;;18.80;101154.00;;;;2063513;28;20210;-60
2022/03/06 00:05:53;;;;;;;8.07;7.40;;;;;18.80;101151.00;;;;2063321;28;20215;-60
2022/03/06 00:06:53;;;;;;;8.33;7.63;;;;;18.80;101145.00;;;;2063378;28;20231;-60
2022/03/06 00:07:56;;;;;;;8.17;7.47;;;;;18.80;101154.00;;;;2063440;28;20215;-60
2022/03/06 00:08:56;;;;;;;8.45;7.72;;;;;18.80;101153.00;;;;2063088;28;20217;-60
2022/03/06 00:09:56;;;;;;;8.30;7.60;;;;;18.80;101154.00;;;;2063718;28;20234;-60
2022/03/06 00:10:57;;;;;;;8.73;7.93;;;;;18.80;101155.00;;;;2063231;28;20229;-60
2022/03/06 00:11:57;;;;;;;8.03;7.43;;;;;18.80;101153.00;;;;2063846;28;20207;-60
2022/03/06 00:12:58;;;;;;;8.00;7.30;;;;;18.80;101153.00;;;;2063651;28;20892;-60
2022/03/06 00:13:58;;;;;;;8.33;7.60;;;;;18.80;101155.00;;;;2063706;28;20211;-60
2022/03/06 00:14:58;;;;;;;8.67;7.87;;;;;18.80;101148.00;;;;2063596;28;20218;-60
2022/03/06 00:15:59;;;;;;;9.13;8.37;;;;;18.80;101149.00;;;;2063809;28;20257;-60
2022/03/06 00:16:59;;;;;;;8.53;7.83;;;;;18.80;101151.00;;;;2063747;28;20222;-60
2022/03/06 00:18:00;;;;;;;8.13;7.33;;;;;18.80;101146.00;;;;2063660;28;20223;-60
2022/03/06 00:19:00;;;;;;;8.83;8.00;;;;;18.80;101141.00;;;;2063708;28;20214;-60
2022/03/06 00:20:02;;;;;;;8.23;7.53;;;;;18.80;101149.00;;;;2063665;28;20215;-60
2022/03/06 00:21:04;;;;;;;8.65;7.85;;;;;18.80;101147.00;;;;2062545;28;20207;-60
2022/03/06 00:22:04;;;;;;;8.43;7.63;;;;;18.80;101150.00;;;;2062533;28;20211;-60
2022/03/06 00:23:05;;;;;;;8.83;8.07;;;;;18.80;101151.00;;;;2063681;28;20211;-60
2022/03/06 00:24:06;;;;;;;8.10;7.40;;;;;18.80;101152.00;;;;2063765;28;20618;-60
2022/03/06 00:25:07;;;;;;;8.47;7.70;;;;;18.80;101154.00;;;;2062041;28;20545;-60
2022/03/06 00:26:07;;;;;;;8.43;7.73;;;;;18.80;101141.00;;;;2063807;28;20203;-60
2022/03/06 00:27:08;;;;;;;7.47;6.77;;;;;18.80;101148.00;;;;2063708;28;20207;-60
2022/03/06 00:28:08;;;;;;;8.90;8.20;;;;;18.70;101133.00;;;;2062834;28;20366;-60
2022/03/06 00:29:08;;;;;;;7.97;7.30;;;;;18.80;101145.00;;;;2063548;28;20203;-60
2022/03/06 00:30:09;;;;;;;7.37;6.77;;;;;18.80;101148.00;;;;2063779;28;20218;-60
2022/03/06 00:31:09;;;;;;;8.73;7.93;;;;;18.80;101148.00;;;;2062886;28;20207;-60
2022/03/06 00:32:10;;;;;;;8.03;7.33;;;;;18.80;101150.00;;;;2063597;28;20215;-60
2022/03/06 00:33:10;;;;;;;8.70;7.90;;;;;18.80;101161.00;;;;2063003;28;20231;-60
2022/03/06 00:34:10;;;;;;;8.40;7.70;;;;;18.80;101155.00;;;;2063590;28;20471;-60
2022/03/06 00:35:11;;;;;;;8.30;7.60;;;;;18.80;101154.00;;;;2063429;28;20221;-60
2022/03/06 00:36:11;;;;;;;8.33;7.63;;;;;18.80;101147.00;;;;2063297;28;20214;-60
2022/03/06 00:37:11;;;;;;;7.83;7.13;;;;;18.80;101151.00;;;;2062977;28;20249;-60
2022/03/06 00:38:12;;;;;;;8.53;7.83;;;;;18.70;101147.00;;;;2062891;28;20258;-60
2022/03/06 00:39:12;;;;;;;8.50;7.80;;;;;18.70;101156.00;;;;2062716;28;20219;-60
2022/03/06 00:40:12;;;;;;;8.67;7.80;;;;;18.80;101156.00;;;;2063175;28;20269;-60
2022/03/06 00:41:13;;;;;;;8.37;7.57;;;;;18.80;101150.00;;;;2062670;28;20258;-60
2022/03/06 00:42:13;;;;;;;9.20;8.30;;;;;18.80;101157.00;;;;2062431;28;20210;-60
2022/03/06 00:43:15;;;;;;;8.37;7.67;;;;;18.80;101153.00;;;;2062592;28;20217;-60
2022/03/06 00:44:16;;;;;;;8.05;7.35;;;;;18.70;101138.00;;;;2062975;28;20219;-60
2022/03/06 00:45:16;;;;;;;8.60;7.80;;;;;18.70;101158.00;;;;2063222;28;20210;-60
2022/03/06 00:46:17;;;;;;;8.40;7.70;;;;;18.70;101150.00;;;;2062858;28;20462;-60
2022/03/06 00:47:17;;;;;;;7.33;6.73;;;;;18.70;101156.00;;;;2063284;28;20222;-60
2022/03/06 00:48:17;;;;;;;8.57;7.87;;;;;18.70;101159.00;;;;2056656;28;20214;-60
2022/03/06 00:49:18;;;;;;;8.20;7.40;;;;;18.70;101153.00;;;;2062708;28;20211;-60
2022/03/06 00:50:18;;;;;;;8.30;7.53;;;;;18.70;101161.00;;;;2062884;28;20218;-60
2022/03/06 00:51:18;;;;;;;8.27;7.57;;;;;18.70;101162.00;;;;2062619;28;20222;-60
2022/03/06 00:52:19;;;;;;;8.03;7.33;;;;;18.70;101168.00;;;;2062826;28;20219;-60
2022/03/06 00:53:19;;;;;;;8.40;7.70;;;;;18.70;101163.00;;;;2063355;28;20685;-60
2022/03/06 00:54:19;;;;;;;7.33;6.73;;;;;18.70;101163.00;;;;2063515;28;21638;-60
2022/03/06 00:55:20;;;;;;;7.50;6.90;;;;;18.70;101171.00;;;;2063533;28;20226;-60
2022/03/06 00:56:20;;;;;;;8.07;7.37;;;;;18.70;101170.00;;;;2063505;28;20219;-60
2022/03/06 00:57:20;;;;;;;8.30;7.53;;;;;18.70;101172.00;;;;2063558;28;20234;-60
2022/03/06 00:58:21;;;;;;;8.30;7.60;;;;;18.70;101176.00;;;;2063556;28;20227;-60
2022/03/06 00:59:21;;;;;;;8.00;7.30;;;;;18.70;101169.00;;;;2063333;28;20230;-60
2022/03/06 01:00:21;;;;;;;8.10;7.40;;;;;18.70;101175.00;;;;2062099;28;20247;-60
2022/03/06 01:01:22;;;;;;;8.17;7.47;;;;;18.70;101163.00;;;;2062581;28;20219;-60
2022/03/06 01:02:22;;;;;;;7.80;7.13;;;;;18.70;101171.00;;;;2062922;28;20242;-60
2022/03/06 01:03:22;;;;;;;8.00;7.30;;;;;18.70;101172.00;;;;2063431;28;20219;-60
2022/03/06 01:04:23;;;;;;;7.57;6.97;;;;;18.70;101172.00;;;;2063446;28;20293;-59
2022/03/06 01:05:23;;;;;;;8.33;7.63;;;;;18.70;101176.00;;;;2063140;28;20211;-60
2022/03/06 01:06:23;;;;;;;8.63;7.83;;;;;18.70;101170.00;;;;2063503;28;20211;-60
2022/03/06 01:07:24;;;;;;;8.20;7.50;;;;;18.70;101174.00;;;;2063364;28;20207;-60
2022/03/06 01:08:24;;;;;;;8.30;7.57;;;;;18.70;101171.00;;;;2063133;28;20626;-60
2022/03/06 01:09:24;;;;;;;8.10;7.40;;;;;18.60;101172.00;;;;2063380;28;20245;-60
2022/03/06 01:10:25;;;;;;;7.90;7.20;;;;;18.70;101172.00;;;;2062603;28;20203;-60
2022/03/06 01:11:25;;;;;;;7.63;6.93;;;;;18.70;101169.00;;;;2063419;28;20666;-60
2022/03/06 01:12:25;;;;;;;8.40;7.70;;;;;18.70;101178.00;;;;2063087;28;20265;-60
2022/03/06 01:13:26;;;;;;;9.07;8.27;;;;;18.60;101171.00;;;;2063396;28;20277;-60
2022/03/06 01:14:26;;;;;;;7.90;7.20;;;;;18.70;101174.00;;;;2063194;28;20222;-60
2022/03/06 01:15:26;;;;;;;8.43;7.73;;;;;18.70;101176.00;;;;2062491;28;20211;-60
2022/03/06 01:16:27;;;;;;;8.20;7.50;;;;;18.70;101169.00;;;;2063281;28;20753;-60
2022/03/06 01:17:27;;;;;;;8.07;7.37;;;;;18.70;101171.00;;;;2063420;28;20219;-60
2022/03/06 01:18:27;;;;;;;8.60;7.90;;;;;18.70;101170.00;;;;2063292;28;20211;-60
2022/03/06 01:19:28;;;;;;;8.33;7.60;;;;;18.70;101180.00;;;;2063262;28;20262;-60
2022/03/06 01:20:28;;;;;;;8.00;7.30;;;;;18.70;101164.00;;;;2062636;28;20211;-60
2022/03/06 01:21:28;;;;;;;8.27;7.57;;;;;18.60;101183.00;;;;2063258;28;20238;-60
2022/03/06 01:22:29;;;;;;;8.50;7.63;;;;;18.70;101178.00;;;;2063295;28;20215;-60
2022/03/06 01:23:29;;;;;;;8.03;7.33;;;;;18.70;101181.00;;;;2063146;28;20241;-60
2022/03/06 01:24:29;;;;;;;9.00;8.20;;;;;18.70;101174.00;;;;2063056;28;20215;-60
2022/03/06 01:25:30;;;;;;;8.30;7.60;;;;;18.60;101171.00;;;;2063306;28;20215;-60
2022/03/06 01:26:30;;;;;;;8.30;7.50;;;;;18.70;101174.00;;;;2063299;28;20219;-60
2022/03/06 01:27:31;;;;;;;8.50;7.80;;;;;18.60;101182.00;;;;2062990;28;20705;-60
2022/03/06 01:28:31;;;;;;;8.47;7.67;;;;;18.60;101186.00;;;;2063209;28;20702;-60
2022/03/06 01:29:32;;;;;;;8.57;7.77;;;;;18.60;101184.00;;;;2063117;28;20698;-60
2022/03/06 01:30:33;;;;;;;8.97;8.20;;;;;18.60;101188.00;;;;2062538;28;20211;-60
2022/03/06 01:31:33;;;;;;;8.37;7.67;;;;;18.60;101178.00;;;;2062394;28;20226;-60
2022/03/06 01:32:33;;;;;;;8.00;7.30;;;;;18.60;101186.00;;;;2061818;28;20471;-60
2022/03/06 01:33:34;;;;;;;8.30;7.60;;;;;18.60;101186.00;;;;2063310;28;20269;-60
2022/03/06 01:34:34;;;;;;;8.90;8.10;;;;;18.60;101190.00;;;;2063174;28;20273;-60
2022/03/06 01:35:34;;;;;;;9.20;8.37;;;;;18.60;101191.00;;;;2062937;28;20218;-60
2022/03/06 01:36:35;;;;;;;8.40;7.60;;;;;18.60;101191.00;;;;2062699;28;20239;-60
2022/03/06 01:37:35;;;;;;;8.00;7.20;;;;;18.60;101193.00;;;;2062644;28;20211;-60
2022/03/06 01:38:35;;;;;;;8.47;7.77;;;;;18.60;101183.00;;;;2062626;28;20210;-60
2022/03/06 01:39:36;;;;;;;8.60;7.90;;;;;18.60;101193.00;;;;2062533;28;20599;-60
2022/03/06 01:40:36;;;;;;;8.27;7.57;;;;;18.60;101184.00;;;;2062201;28;20214;-60
2022/03/06 01:41:36;;;;;;;7.83;7.13;;;;;18.60;101197.00;;;;2062798;28;20214;-60
2022/03/06 01:42:43;;;;;;;8.80;8.00;;;;;18.60;101191.00;;;;2062833;28;20877;-60
2022/03/06 01:43:43;;;;;;;8.80;8.00;;;;;18.60;101189.00;;;;2059097;28;20226;-60
2022/03/06 01:44:45;;;;;;;8.20;7.50;;;;;18.60;101195.00;;;;2062606;28;20242;-60
2022/03/06 01:45:45;;;;;;;8.13;7.43;;;;;18.60;101189.00;;;;2062561;28;20215;-60
2022/03/06 01:46:46;;;;;;;8.00;7.30;;;;;18.60;101188.00;;;;2062594;28;20210;-60
2022/03/06 01:47:48;;;;;;;8.37;7.60;;;;;18.60;101188.00;;;;2062355;28;20217;-60
2022/03/06 01:48:48;;;;;;;8.60;7.85;;;;;18.60;101191.00;;;;2062562;28;20474;-60
2022/03/06 01:49:49;;;;;;;8.57;7.77;;;;;18.60;101187.00;;;;2062639;28;20211;-60
2022/03/06 01:50:49;;;;;;;8.53;7.83;;;;;18.60;101195.00;;;;2061977;28;20214;-60
2022/03/06 01:51:49;;;;;;;8.83;8.00;;;;;18.60;101187.00;;;;2062520;28;20229;-60
2022/03/06 01:52:51;;;;;;;7.80;7.10;;;;;18.60;101192.00;;;;2062554;28;20281;-60
2022/03/06 01:53:52;;;;;;;8.57;7.72;;;;;18.60;101199.00;;;;2062546;28;20235;-60
2022/03/06 01:54:52;;;;;;;8.60;7.90;;;;;18.60;101191.00;;;;2061543;28;20215;-60
2022/03/06 01:55:53;;;;;;;8.03;7.33;;;;;18.60;101190.00;;;;2061630;28;20210;-60
2022/03/06 01:56:53;;;;;;;7.97;7.30;;;;;18.60;101188.00;;;;2061781;28;20206;-60
2022/03/06 01:57:55;;;;;;;8.90;8.10;;;;;18.60;101197.00;;;;2061629;28;20226;-60
2022/03/06 01:58:55;;;;;;;8.02;7.32;;;;;18.60;101198.00;;;;2062293;28;20726;-61
2022/03/06 01:59:55;;;;;;;7.90;7.20;;;;;18.60;101200.00;;;;2062501;28;20265;-60
2022/03/06 02:00:56;;;;;;;7.40;6.80;;;;;18.60;101198.00;;;;2061908;28;20269;-60
2022/03/06 02:01:56;;;;;;;8.07;7.37;;;;;18.60;101194.00;;;;2062699;28;20206;-60
2022/03/06 02:02:56;;;;;;;7.93;7.27;;;;;18.60;101194.00;;;;2062419;28;20206;-60
2022/03/06 02:03:57;;;;;;;8.30;7.50;;;;;18.60;101204.00;;;;2062480;28;20219;-60
2022/03/06 02:04:59;;;;;;;8.50;7.70;;;;;18.60;101207.00;;;;2062264;28;20235;-60
2022/03/06 02:06:00;;;;;;;7.75;7.10;;;;;18.60;101206.00;;;;2058142;28;20556;-60
2022/03/06 02:07:00;;;;;;;7.33;6.73;;;;;18.60;101204.00;;;;2061881;28;20261;-60
2022/03/06 02:08:01;;;;;;;7.67;7.00;;;;;18.60;101207.00;;;;2062174;28;20223;-60
2022/03/06 02:09:02;;;;;;;8.38;7.65;;;;;18.60;101201.00;;;;2062320;28;20223;-60
2022/03/06 02:10:03;;;;;;;8.37;7.67;;;;;18.60;101202.00;;;;2062347;28;20261;-59
2022/03/06 02:11:03;;;;;;;8.23;7.53;;;;;18.60;101205.00;;;;2054915;28;20215;-60
2022/03/06 02:12:22;;;;;;;7.87;7.07;;;;;18.50;101188.00;;;;2061546;28;20277;-60
2022/03/06 02:13:23;;;;;;;8.00;7.30;;;;;18.50;101207.00;;;;2053661;28;20226;-60
2022/03/06 02:14:23;;;;;;;7.90;7.30;;;;;18.50;101207.00;;;;2056519;28;20208;-60
2022/03/06 02:15:23;;;;;;;8.37;7.67;;;;;18.50;101197.00;;;;2062407;28;20207;-60
2022/03/06 02:16:24;;;;;;;7.60;6.90;;;;;18.50;101194.00;;;;2062679;28;20214;-60
2022/03/06 02:17:24;;;;;;;8.20;7.53;;;;;18.50;101196.00;;;;2062937;28;20241;-60
2022/03/06 02:18:25;;;;;;;7.93;7.23;;;;;18.50;101202.00;;;;2061741;28;20748;-60
2022/03/06 02:19:25;;;;;;;7.93;7.23;;;;;18.50;101187.00;;;;2062635;28;20722;-60
2022/03/06 02:20:26;;;;;;;7.63;6.93;;;;;18.50;101204.00;;;;2056108;28;20722;-60
2022/03/06 02:21:26;;;;;;;8.23;7.53;;;;;18.50;101199.00;;;;2062046;28;20599;-60
2022/03/06 02:22:40;;;;;;;8.03;7.33;;;;;18.50;101199.00;;;;2061960;28;20219;-60
2022/03/06 02:23:40;;;;;;;7.40;6.75;;;;;18.50;101201.00;;;;2062236;28;20591;-60
2022/03/06 02:24:40;;;;;;;8.10;7.40;;;;;18.50;101194.00;;;;2062189;28;20301;-60
2022/03/06 02:25:40;;;;;;;7.87;7.23;;;;;18.50;101195.00;;;;2061903;28;20218;-60
2022/03/06 02:26:41;;;;;;;8.43;7.63;;;;;18.50;101196.00;;;;2062826;28;20250;-60
2022/03/06 02:27:41;;;;;;;7.57;6.97;;;;;18.50;101189.00;;;;2061164;28;20222;-60
2022/03/06 02:28:43;;;;;;;8.03;7.33;;;;;18.50;101191.00;;;;2062552;28;20231;-60
2022/03/06 02:29:43;;;;;;;7.60;6.93;;;;;18.50;101186.00;;;;2061853;28;20223;-60
2022/03/06 02:30:44;;;;;;;8.37;7.67;;;;;18.50;101198.00;;;;2062007;28;20215;-60
2022/03/06 02:31:45;;;;;;;7.90;7.20;;;;;18.50;101187.00;;;;2062721;28;20219;-60
2022/03/06 02:32:46;;;;;;;8.20;7.50;;;;;18.50;101191.00;;;;2062581;28;20633;-60
2022/03/06 02:33:46;;;;;;;8.20;7.43;;;;;18.50;101190.00;;;;2062775;28;20598;-60
2022/03/06 02:34:47;;;;;;;7.73;7.13;;;;;18.50;101184.00;;;;2062790;28;20215;-60
2022/03/06 02:35:48;;;;;;;8.20;7.50;;;;;18.50;101191.00;;;;2062928;28;20210;-60
2022/03/06 02:36:48;;;;;;;8.10;7.40;;;;;18.50;101191.00;;;;2062739;28;20241;-60
2022/03/06 02:37:48;;;;;;;8.00;7.30;;;;;18.50;101189.00;;;;2062549;28;20242;-60
2022/03/06 02:38:49;;;;;;;7.87;7.17;;;;;18.50;101186.00;;;;2062702;28;20221;-60
2022/03/06 02:39:49;;;;;;;7.60;6.90;;;;;18.50;101185.00;;;;2062915;28;20321;-60
2022/03/06 02:40:51;;;;;;;8.03;7.30;;;;;18.50;101186.00;;;;2062353;28;20744;-60
2022/03/06 02:41:52;;;;;;;7.68;7.07;;;;;18.50;101202.00;;;;2061752;28;20348;-60
2022/03/06 02:42:52;;;;;;;8.07;7.33;;;;;18.50;101192.00;;;;2062053;28;20218;-60
2022/03/06 02:43:53;;;;;;;7.53;6.93;;;;;18.50;101182.00;;;;2061844;28;20210;-60
2022/03/06 02:44:53;;;;;;;8.87;8.17;;;;;18.50;101180.00;;;;2061780;28;20233;-60
2022/03/06 02:45:54;;;;;;;7.87;7.20;;;;;18.50;101174.00;;;;2062092;28;20211;-60
2022/03/06 02:46:54;;;;;;;8.60;7.80;;;;;18.50;101188.00;;;;2062077;28;20529;-60
2022/03/06 02:47:56;;;;;;;8.00;7.30;;;;;18.50;101182.00;;;;2062707;28;20230;-60
2022/03/06 02:48:56;;;;;;;8.30;7.50;;;;;18.50;101183.00;;;;2061910;28;20622;-60
2022/03/06 02:49:57;;;;;;;7.83;7.23;;;;;18.50;101193.00;;;;2062110;28;20210;-60
2022/03/06 02:50:57;;;;;;;7.70;6.90;;;;;18.50;101183.00;;;;2062054;28;20215;-60
2022/03/06 02:51:57;;;;;;;7.37;6.70;;;;;18.50;101180.00;;;;2062680;28;20217;-60
2022/03/06 02:52:58;;;;;;;7.70;7.00;;;;;18.50;101181.00;;;;2062478;28;20222;-60
2022/03/06 02:53:59;;;;;;;7.70;7.00;;;;;18.50;101187.00;;;;2058865;28;20249;-60
2022/03/06 02:54:59;;;;;;;7.33;6.73;;;;;18.50;101187.00;;;;2062722;28;20589;-60
2022/03/06 02:55:59;;;;;;;7.67;7.03;;;;;18.40;101188.00;;;;2062796;28;20870;-60
2022/03/06 02:57:00;;;;;;;7.57;6.87;;;;;18.50;101188.00;;;;2062429;28;20241;-60
2022/03/06 02:58:00;;;;;;;8.10;7.40;;;;;18.40;101183.00;;;;2062503;28;20297;-60
2022/03/06 02:59:00;;;;;;;7.97;7.27;;;;;18.40;101180.00;;;;2062529;28;20210;-60
2022/03/06 03:00:01;;;;;;;7.00;6.40;;;;;18.40;101181.00;;;;2062825;28;20222;-60
2022/03/06 03:01:01;;;;;;;8.33;7.63;;;;;18.50;101189.00;;;;2061655;28;20250;-60
2022/03/06 03:02:02;;;;;;;8.33;7.53;;;;;18.50;101184.00;;;;2062776;28;20261;-60
2022/03/06 03:03:02;;;;;;;7.80;7.10;;;;;18.50;101185.00;;;;2062079;28;20207;-60
2022/03/06 03:04:03;;;;;;;7.90;7.30;;;;;18.40;101184.00;;;;2060517;28;20671;-60
2022/03/06 03:05:05;;;;;;;7.83;7.13;;;;;18.40;101180.00;;;;2061390;28;20690;-60
2022/03/06 03:06:06;;;;;;;8.30;7.60;;;;;18.50;101190.00;;;;2061944;28;21052;-60
2022/03/06 03:07:07;;;;;;;8.05;7.35;;;;;18.50;101183.00;;;;2061611;28;20211;-60
2022/03/06 03:08:08;;;;;;;7.88;7.18;;;;;18.40;101183.00;;;;2062006;28;20199;-60
2022/03/06 03:09:08;;;;;;;8.73;7.97;;;;;18.40;101181.00;;;;2062381;28;20245;-60
2022/03/06 03:10:10;;;;;;;7.70;7.00;;;;;18.40;101169.00;;;;2062694;28;20217;-60
2022/03/06 03:11:10;;;;;;;7.90;7.20;;;;;18.40;101178.00;;;;2061424;28;20211;-60
2022/03/06 03:12:11;;;;;;;8.23;7.53;;;;;18.40;101180.00;;;;2062364;28;20210;-60
2022/03/06 03:13:11;;;;;;;8.30;7.60;;;;;18.40;101181.00;;;;2061785;28;20226;-60
2022/03/06 03:14:11;;;;;;;9.23;8.43;;;;;18.40;101188.00;;;;2062571;28;20249;-60
2022/03/06 03:15:12;;;;;;;7.40;6.80;;;;;18.40;101185.00;;;;2062535;28;20225;-60
2022/03/06 03:16:12;;;;;;;7.57;6.97;;;;;18.40;101180.00;;;;2062721;28;20215;-60
2022/03/06 03:17:12;;;;;;;7.40;6.80;;;;;18.40;101183.00;;;;2062590;28;20246;-60
2022/03/06 03:18:13;;;;;;;7.90;7.20;;;;;18.40;101178.00;;;;2062496;28;20215;-60
2022/03/06 03:19:13;;;;;;;8.07;7.37;;;;;18.40;101175.00;;;;2062610;28;20211;-60
2022/03/06 03:20:14;;;;;;;8.03;7.33;;;;;18.40;101181.00;;;;2062556;28;20213;-60
2022/03/06 03:21:14;;;;;;;7.50;6.90;;;;;18.40;101183.00;;;;2061957;28;20211;-60
2022/03/06 03:22:14;;;;;;;8.60;7.80;;;;;18.40;101184.00;;;;2062614;28;20237;-60
2022/03/06 03:23:15;;;;;;;8.07;7.37;;;;;18.40;101181.00;;;;2062663;28;20214;-60
2022/03/06 03:24:15;;;;;;;8.30;7.60;;;;;18.40;101183.00;;;;2062409;28;20270;-60
2022/03/06 03:25:15;;;;;;;8.13;7.43;;;;;18.40;101186.00;;;;2062540;28;20214;-60
2022/03/06 03:26:16;;;;;;;7.53;6.83;;;;;18.40;101189.00;;;;2062614;28;20219;-60
2022/03/06 03:27:16;;;;;;;7.50;6.80;;;;;18.40;101182.00;;;;2062477;28;20207;-60
2022/03/06 03:28:16;;;;;;;7.17;6.67;;;;;18.20;101188.00;;;;2062647;28;20305;-60
2022/03/06 03:29:17;;;;;;;8.20;7.50;;;;;18.40;101195.00;;;;2062406;28;20215;-60
2022/03/06 03:30:17;;;;;;;8.37;7.63;;;;;18.40;101193.00;;;;2062353;28;20237;-60
2022/03/06 03:31:18;;;;;;;7.60;7.00;;;;;18.40;101190.00;;;;2058741;28;20203;-60
2022/03/06 03:32:18;;;;;;;7.70;7.00;;;;;18.40;101197.00;;;;2061856;28;20798;-60
2022/03/06 03:33:18;;;;;;;8.03;7.23;;;;;18.40;101197.00;;;;2059928;28;20211;-60
2022/03/06 03:34:18;;;;;;;7.70;7.00;;;;;18.40;101196.00;;;;2061951;28;20242;-60
2022/03/06 03:35:19;;;;;;;7.80;6.97;;;;;18.40;101190.00;;;;2061718;28;20215;-60
2022/03/06 03:36:19;;;;;;;7.70;7.00;;;;;18.40;101192.00;;;;2060979;28;20277;-60
2022/03/06 03:37:19;;;;;;;8.23;7.53;;;;;18.40;101198.00;;;;2063624;28;20211;-60
2022/03/06 03:38:20;;;;;;;7.90;7.20;;;;;18.40;101187.00;;;;2062941;28;20223;-60
2022/03/06 03:39:20;;;;;;;8.27;7.57;;;;;18.40;101193.00;;;;2063206;28;20226;-60
2022/03/06 03:40:21;;;;;;;7.77;7.17;;;;;18.40;101199.00;;;;2063066;28;20285;-60
2022/03/06 03:41:23;;;;;;;7.13;6.53;;;;;18.40;101196.00;;;;2063378;28;20223;-60
2022/03/06 03:42:23;;;;;;;8.65;7.28;;;;;18.40;101195.00;;;;2063825;28;20230;-60
2022/03/06 03:43:23;;;;;;;7.70;7.10;;;;;18.40;101191.00;;;;2063227;28;20638;-60
2022/03/06 03:44:24;;;;;;;7.20;6.60;;;;;18.40;101194.00;;;;2063402;28;20607;-60
2022/03/06 03:45:24;;;;;;;7.80;7.10;;;;;18.40;101194.00;;;;2064199;28;20214;-60
2022/03/06 03:46:24;;;;;;;8.20;7.50;;;;;18.40;101190.00;;;;2064144;28;20219;-60
2022/03/06 03:47:25;;;;;;;8.23;7.53;;;;;18.40;101194.00;;;;2063878;28;20284;-60
2022/03/06 03:48:26;;;;;;;8.23;7.53;;;;;18.40;101150.00;;;;2064126;28;20678;-60
2022/03/06 03:49:26;;;;;;;7.10;6.50;;;;;18.40;101192.00;;;;2063327;28;20616;-60
2022/03/06 03:50:26;;;;;;;7.67;7.07;;;;;18.40;101197.00;;;;2062535;28;20508;-60
2022/03/06 03:51:27;;;;;;;7.87;7.20;;;;;18.30;101197.00;;;;2063490;28;20265;-60
2022/03/06 03:52:27;;;;;;;8.20;7.50;;;;;18.40;101191.00;;;;2062497;28;20214;-60
2022/03/06 03:53:27;;;;;;;7.50;6.80;;;;;18.40;101191.00;;;;2063050;28;20215;-60
2022/03/06 03:54:28;;;;;;;8.17;7.47;;;;;18.40;101186.00;;;;2063843;28;20219;-60
2022/03/06 03:55:28;;;;;;;8.50;7.80;;;;;18.40;101195.00;;;;2063986;28;20227;-60
2022/03/06 03:56:28;;;;;;;8.30;7.57;;;;;18.40;101200.00;;;;2063118;28;20234;-60
2022/03/06 03:57:29;;;;;;;7.50;6.90;;;;;18.40;101192.00;;;;2063617;28;20699;-60
2022/03/06 03:58:29;;;;;;;7.97;7.27;;;;;18.40;101197.00;;;;2063177;28;20800;-60
2022/03/06 03:59:29;;;;;;;8.10;7.40;;;;;18.20;101196.00;;;;2062479;28;20222;-60
2022/03/06 04:00:30;;;;;;;7.40;6.70;;;;;18.40;101193.00;;;;2062706;28;20301;-60
2022/03/06 04:01:30;;;;;;;7.90;7.20;;;;;18.40;101189.00;;;;2059970;28;20223;-60
2022/03/06 04:02:32;;;;;;;7.67;6.97;;;;;18.30;101195.00;;;;2063060;28;20258;-60
2022/03/06 04:03:32;;;;;;;8.20;7.50;;;;;18.30;101192.00;;;;2063415;28;20700;-60
2022/03/06 04:04:32;;;;;;;8.20;7.50;;;;;18.40;101202.00;;;;2061416;28;20230;-60
2022/03/06 04:05:33;;;;;;;7.53;6.93;;;;;18.40;101200.00;;;;2063050;28;20635;-60
2022/03/06 04:06:33;;;;;;;8.27;7.47;;;;;18.30;101196.00;;;;2063559;28;20214;-60
2022/03/06 04:07:33;;;;;;;7.47;6.77;;;;;18.40;101200.00;;;;2063365;28;20246;-60
2022/03/06 04:08:33;;;;;;;7.27;6.67;;;;;18.40;101197.00;;;;2063635;28;20242;-60
2022/03/06 04:09:34;;;;;;;7.70;7.10;;;;;18.40;101202.00;;;;2063562;28;20289;-60
2022/03/06 04:10:34;;;;;;;7.30;6.67;;;;;18.40;101210.00;;;;2062739;28;20254;-60
2022/03/06 04:11:34;;;;;;;7.40;6.80;;;;;18.30;101209.00;;;;2061616;28;20245;-60
2022/03/06 04:12:35;;;;;;;7.53;6.93;;;;;18.30;101205.00;;;;2059349;28;20211;-60
2022/03/06 04:13:35;;;;;;;8.40;7.70;;;;;18.30;101201.00;;;;2063014;28;20222;-60
2022/03/06 04:14:35;;;;;;;7.87;7.23;;;;;18.30;101206.00;;;;2063601;28;20242;-60
2022/03/06 04:15:36;;;;;;;7.00;6.40;;;;;18.30;101207.00;;;;2063865;28;20219;-60
2022/03/06 04:16:36;;;;;;;7.80;7.10;;;;;18.30;101211.00;;;;2063913;28;20276;-60
2022/03/06 04:17:36;;;;;;;7.60;7.00;;;;;18.30;101209.00;;;;2063617;28;20222;-60
2022/03/06 04:18:37;;;;;;;7.47;6.87;;;;;18.30;101209.00;;;;2063834;28;20211;-60
2022/03/06 04:19:37;;;;;;;7.30;6.70;;;;;18.30;101201.00;;;;2063667;28;20222;-60
2022/03/06 04:20:38;;;;;;;8.30;7.60;;;;;18.30;101207.00;;;;2063064;28;20262;-60
2022/03/06 04:21:38;;;;;;;7.73;7.03;;;;;18.40;101209.00;;;;2063649;28;20215;-60
2022/03/06 04:22:38;;;;;;;7.70;7.10;;;;;18.30;101217.00;;;;2063411;28;20609;-60
2022/03/06 04:23:39;;;;;;;7.90;7.10;;;;;18.30;101214.00;;;;2063072;28;20218;-60
2022/03/06 04:24:39;;;;;;;7.20;6.60;;;;;18.30;101219.00;;;;2063696;28;20269;-60
2022/03/06 04:25:40;;;;;;;8.10;7.40;;;;;18.20;101216.00;;;;2063370;28;20214;-60
2022/03/06 04:26:40;;;;;;;8.37;7.63;;;;;18.30;101217.00;;;;2063529;28;20699;-60
2022/03/06 04:27:41;;;;;;;7.70;7.03;;;;;18.30;101217.00;;;;2063814;28;20462;-60
2022/03/06 04:28:41;;;;;;;7.93;7.23;;;;;18.30;101221.00;;;;2063660;28;20211;-60
2022/03/06 04:29:41;;;;;;;8.30;7.60;;;;;18.30;101224.00;;;;2062928;28;20250;-60
2022/03/06 04:30:42;;;;;;;8.50;7.77;;;;;18.30;101219.00;;;;2060438;28;20586;-60
2022/03/06 04:31:42;;;;;;;7.40;6.80;;;;;18.30;101215.00;;;;2063807;28;20571;-60
2022/03/06 04:32:42;;;;;;;8.13;7.43;;;;;18.30;101200.00;;;;2063556;28;20226;-60
2022/03/06 04:33:43;;;;;;;7.43;6.83;;;;;18.30;101221.00;;;;2063730;28;20242;-60
2022/03/06 04:34:43;;;;;;;7.63;6.63;;;;;18.30;101218.00;;;;2063615;28;20214;-60
2022/03/06 04:35:43;;;;;;;7.83;7.13;;;;;18.30;101219.00;;;;2060158;28;20211;-60
2022/03/06 04:36:44;;;;;;;7.00;6.40;;;;;18.30;101221.00;;;;2062752;28;20210;-60
2022/03/06 04:37:44;;;;;;;7.57;6.97;;;;;18.30;101223.00;;;;2062892;28;20203;-59
2022/03/06 04:38:44;;;;;;;7.90;7.30;;;;;18.30;101229.00;;;;2062991;28;20221;-60
2022/03/06 04:39:45;;;;;;;8.13;7.40;;;;;18.30;101226.00;;;;2062098;28;20588;-60
2022/03/06 04:40:46;;;;;;;7.90;7.20;;;;;18.30;101225.00;;;;2061761;28;20226;-60
2022/03/06 04:41:47;;;;;;;7.90;7.20;;;;;18.30;101233.00;;;;2062953;28;20211;-60
2022/03/06 04:42:47;;;;;;;8.00;7.20;;;;;18.30;101234.00;;;;2063192;28;20679;-60
2022/03/06 04:43:47;;;;;;;8.23;7.53;;;;;18.30;101234.00;;;;2062896;28;20724;-60
2022/03/06 04:44:48;;;;;;;7.20;6.60;;;;;18.30;101237.00;;;;2063001;28;20709;-60
2022/03/06 04:45:48;;;;;;;7.80;7.00;;;;;18.30;101243.00;;;;2063154;28;20214;-60
2022/03/06 04:46:49;;;;;;;7.77;7.07;;;;;18.30;101241.00;;;;2062477;28;20227;-60
2022/03/06 04:47:49;;;;;;;7.20;6.60;;;;;18.30;101227.00;;;;2063207;28;20391;-60
2022/03/06 04:48:50;;;;;;;7.60;7.00;;;;;18.30;101237.00;;;;2063616;28;20642;-60
2022/03/06 04:49:51;;;;;;;8.00;7.30;;;;;18.30;101246.00;;;;2063402;28;20226;-60
2022/03/06 04:50:51;;;;;;;7.87;7.17;;;;;18.30;101241.00;;;;2060396;28;20218;-60
2022/03/06 04:51:51;;;;;;;8.17;7.47;;;;;18.30;101245.00;;;;2062979;28;20207;-60
2022/03/06 04:52:52;;;;;;;8.27;7.57;;;;;18.30;101220.00;;;;2062671;28;20274;-60
2022/03/06 04:53:52;;;;;;;8.30;7.60;;;;;18.30;101240.00;;;;2063382;28;20239;-60
2022/03/06 04:54:52;;;;;;;7.47;6.77;;;;;18.30;101229.00;;;;2063370;28;20207;-60
2022/03/06 04:55:53;;;;;;;7.13;6.53;;;;;18.30;101235.00;;;;2063385;28;20343;-60
2022/03/06 04:56:53;;;;;;;8.37;7.73;;;;;18.30;101240.00;;;;2063509;28;20253;-60
2022/03/06 04:57:53;;;;;;;8.03;7.33;;;;;18.20;101232.00;;;;2063438;28;20731;-60
2022/03/06 04:58:54;;;;;;;7.80;7.20;;;;;18.20;101233.00;;;;2062785;28;20246;-60
2022/03/06 04:59:54;;;;;;;7.73;7.13;;;;;18.20;101236.00;;;;2063258;28;20238;-60